createdAt,value
2023-01-26T00:02:28.882Z,-2.51
2023-01-26T00:04:55.420Z,-2.52
2023-01-26T00:07:21.874Z,-2.60
2023-01-26T00:15:16.972Z,-2.50
2023-01-26T00:20:24.320Z,-2.43
2023-01-26T00:22:50.740Z,-2.47
2023-01-26T00:25:20.066Z,-2.87
2023-01-26T00:27:46.625Z,-2.69
2023-01-26T00:30:13.786Z,-2.58
2023-01-26T00:32:40.343Z,-2.60
2023-01-26T00:35:06.985Z,-2.58
2023-01-26T00:37:33.501Z,-2.53
2023-01-26T00:39:59.975Z,-2.63
2023-01-26T00:42:26.579Z,-2.62
2023-01-26T00:44:53.063Z,-2.66
2023-01-26T00:47:19.615Z,-2.57
2023-01-26T00:49:46.083Z,-2.56
2023-01-26T00:52:13.238Z,-2.57
2023-01-26T00:54:39.916Z,-2.56
2023-01-26T00:57:06.353Z,-2.52
2023-01-26T00:59:32.904Z,-2.46
2023-01-26T01:02:02.630Z,-2.48
2023-01-26T01:04:30.605Z,-2.51
2023-01-26T01:07:00.140Z,-2.47
2023-01-26T01:09:26.738Z,-2.61
2023-01-26T01:11:53.160Z,-2.48
2023-01-26T01:14:19.744Z,-2.42
2023-01-26T01:16:46.590Z,-2.46
2023-01-26T01:19:15.775Z,-2.52
2023-01-26T01:21:43.430Z,-2.43
2023-01-26T01:24:10.141Z,-2.47
2023-01-26T01:26:36.609Z,-2.50
2023-01-26T01:29:03.213Z,-2.50
2023-01-26T01:31:30.194Z,-2.69
2023-01-26T01:33:57.442Z,-2.53
2023-01-26T01:36:24.303Z,-2.36
2023-01-26T01:38:50.847Z,-2.36
2023-01-26T01:41:19.924Z,-2.35
2023-01-26T01:43:46.595Z,-2.46
2023-01-26T01:46:32.211Z,-2.39
2023-01-26T01:49:06.922Z,-2.46
2023-01-26T01:51:53.280Z,-2.44
2023-01-26T01:54:26.526Z,-2.59
2023-01-26T01:56:58.130Z,-2.44
2023-01-26T01:59:25.335Z,-2.33
2023-01-26T02:01:53.228Z,-2.40
2023-01-26T02:04:22.678Z,-2.53
2023-01-26T02:06:52.279Z,-2.42
2023-01-26T02:09:43.193Z,-2.46
2023-01-26T02:12:12.898Z,-2.42
2023-01-26T02:14:41.001Z,-2.46
2023-01-26T02:17:08.868Z,-2.50
2023-01-26T02:19:52.687Z,-2.50
2023-01-26T02:22:28.192Z,-2.37
2023-01-26T02:24:59.370Z,-2.41
2023-01-26T02:27:26.149Z,-2.44
2023-01-26T02:29:53.726Z,-2.41
2023-01-26T02:32:20.090Z,-2.39
2023-01-26T05:04:43.482Z,-1.99
2023-01-26T05:07:09.849Z,-1.89
2023-01-26T05:09:36.274Z,-1.98
2023-01-26T05:12:23.789Z,-1.93
2023-01-26T05:14:51.272Z,-2.07
2023-01-26T05:17:17.881Z,-1.89
2023-01-26T05:19:44.265Z,-1.91
2023-01-26T05:22:12.706Z,-1.89
2023-01-26T05:24:39.296Z,-1.88
2023-01-26T05:27:21.248Z,-1.90
2023-01-26T05:29:48.674Z,-1.87
2023-01-26T05:32:15.281Z,-1.98
2023-01-26T14:19:46.718Z,4.03
2023-01-26T14:22:14.426Z,4.14
2023-01-26T14:24:43.041Z,4.15
2023-01-26T14:27:38.926Z,4.12
2023-01-26T14:30:29.752Z,4.20
2023-01-26T14:33:13.819Z,4.14
2023-01-26T14:35:41.851Z,4.13
2023-01-26T14:38:11.323Z,4.14
2023-01-26T14:40:51.890Z,4.09
2023-01-26T14:43:18.771Z,4.06
2023-01-26T14:51:08.120Z,3.38
2023-01-26T14:53:34.632Z,3.82
2023-01-26T15:36:35.054Z,3.71
2023-01-26T15:47:20.951Z,3.69
2023-01-26T15:49:47.452Z,3.67
2023-01-26T15:57:40.736Z,3.50
2023-01-26T16:00:07.996Z,3.58
2023-01-26T16:02:34.402Z,3.60
2023-01-26T16:13:01.023Z,3.48
2023-01-26T16:15:41.520Z,3.43
2023-01-26T16:18:08.341Z,3.43
2023-01-26T16:20:36.562Z,3.53
2023-01-26T16:23:03.627Z,3.55
2023-01-26T16:25:31.729Z,3.47
2023-01-26T16:30:33.609Z,3.33
2023-01-26T16:33:00.124Z,3.20
2023-01-26T16:35:28.853Z,3.23
2023-01-26T16:37:55.653Z,3.24
2023-01-26T16:43:03.757Z,3.26
2023-01-26T16:45:30.283Z,3.25
2023-01-26T16:50:38.709Z,3.26
2023-01-26T16:55:40.311Z,3.34
2023-01-26T16:58:06.738Z,3.08
2023-01-26T17:00:33.472Z,3.18
2023-01-26T17:02:59.897Z,3.12
2023-01-26T17:05:26.282Z,3.26
2023-01-26T17:07:52.672Z,3.36
2023-01-26T17:10:22.408Z,3.25
2023-01-26T17:12:48.802Z,3.31
2023-01-26T17:15:15.335Z,3.21
2023-01-26T17:17:42.451Z,3.31
2023-01-26T17:20:18.821Z,3.29
2023-01-26T17:22:46.783Z,3.23
2023-01-26T17:25:16.501Z,3.20
2023-01-26T17:27:43.970Z,3.25
2023-01-26T17:30:10.957Z,3.30
2023-01-26T17:32:37.448Z,3.34
2023-01-26T17:35:04.019Z,3.37
2023-01-26T17:37:31.473Z,3.30
2023-01-26T17:39:57.893Z,3.31
2023-01-26T17:42:25.514Z,3.27
2023-01-26T17:44:52.008Z,3.26
2023-01-26T17:47:18.426Z,3.23
2023-01-26T17:49:45.004Z,3.17
2023-01-26T17:52:14.117Z,3.21
2023-01-26T17:54:40.914Z,3.20
2023-01-26T17:57:07.525Z,3.17
2023-01-26T17:59:33.974Z,3.09
2023-01-26T18:02:00.592Z,3.08
2023-01-26T18:04:27.171Z,3.07
2023-01-26T18:06:53.648Z,3.12
2023-01-26T18:09:20.028Z,3.13
2023-01-26T18:11:46.427Z,3.12
2023-01-26T18:14:12.817Z,3.12
2023-01-26T18:16:39.260Z,3.07
2023-01-26T18:19:05.921Z,3.07
2023-01-26T18:21:34.784Z,3.05
2023-01-26T18:24:04.398Z,3.08
2023-01-26T18:26:34.254Z,3.06
2023-01-26T18:29:01.444Z,3.07
2023-01-26T18:31:30.318Z,3.04
2023-01-26T18:33:57.605Z,3.03
2023-01-26T18:36:24.067Z,2.97
2023-01-26T18:38:53.309Z,3.04
2023-01-26T18:41:22.151Z,3.01
2023-01-26T18:43:53.092Z,3.08
2023-01-26T18:46:20.895Z,3.16
2023-01-26T18:48:47.529Z,3.13
2023-01-26T18:51:14.415Z,3.09
2023-01-26T18:53:41.056Z,3.12
2023-01-26T18:56:10.403Z,3.08
2023-01-26T18:58:38.123Z,3.05
2023-01-26T19:01:09.299Z,3.10
2023-01-26T19:03:36.757Z,3.06
2023-01-26T19:06:05.360Z,2.99
2023-01-26T19:08:32.269Z,3.05
2023-01-26T19:11:08.489Z,2.97
2023-01-26T19:13:41.970Z,2.95
2023-01-26T19:16:17.271Z,2.93
2023-01-26T19:18:43.755Z,2.86
2023-01-26T19:21:10.384Z,2.84
2023-01-26T19:23:38.379Z,2.80
2023-01-26T19:26:17.620Z,2.84
2023-01-26T19:28:44.796Z,2.86
2023-01-26T19:31:11.893Z,2.86
2023-01-26T19:33:38.443Z,2.84
2023-01-26T19:36:06.722Z,2.84
2023-01-26T19:38:36.854Z,2.93
2023-01-26T19:41:03.346Z,2.91
2023-01-26T19:43:29.855Z,2.90
2023-01-26T19:45:56.832Z,2.98
2023-01-26T19:48:26.143Z,2.94
2023-01-26T19:51:16.454Z,3.02
2023-01-26T19:53:45.344Z,3.04
2023-01-26T19:56:35.048Z,2.97
2023-01-26T19:59:04.620Z,2.98
2023-01-26T20:01:32.168Z,2.91
2023-01-26T20:04:04.952Z,3.01
2023-01-26T20:06:33.817Z,2.97
2023-01-26T20:09:01.196Z,2.94
2023-01-26T20:11:29.587Z,2.96
2023-01-26T20:13:57.387Z,2.92
2023-01-26T20:16:24.917Z,2.95
2023-01-26T20:18:51.444Z,2.93
2023-01-26T20:21:17.894Z,2.95
2023-01-26T20:23:53.970Z,2.96
2023-01-26T20:26:21.752Z,2.93
2023-01-26T20:28:48.439Z,2.89
2023-01-26T20:31:18.008Z,2.89
2023-01-26T20:33:49.364Z,2.89
2023-01-26T20:36:18.570Z,2.88
2023-01-26T20:38:48.331Z,2.87
2023-01-26T20:41:18.594Z,2.86
2023-01-26T20:43:58.749Z,2.86
2023-01-26T20:46:29.558Z,2.83
2023-01-26T20:48:56.820Z,2.77
2023-01-26T20:51:36.355Z,2.83
2023-01-26T20:54:06.210Z,2.81
2023-01-26T20:56:33.255Z,2.85
2023-01-26T20:58:59.765Z,2.78
2023-01-26T21:01:26.756Z,2.87
2023-01-26T21:03:53.782Z,2.85
2023-01-26T21:06:21.516Z,2.86
2023-01-26T21:08:49.862Z,2.83
2023-01-26T21:11:17.181Z,2.87
2023-01-26T21:13:45.284Z,2.87
2023-01-26T21:16:19.126Z,2.88
2023-01-26T21:18:46.132Z,2.86
2023-01-26T21:21:14.938Z,2.86
2023-01-26T21:23:41.447Z,2.87
2023-01-26T21:26:13.796Z,2.89
2023-01-26T21:28:40.206Z,2.91
2023-01-26T21:31:14.176Z,2.89
2023-01-26T21:33:45.787Z,2.84
2023-01-26T21:36:17.715Z,2.87
2023-01-26T21:38:47.029Z,2.93
2023-01-26T21:41:43.029Z,2.90
2023-01-26T21:44:15.163Z,2.90
2023-01-26T21:46:41.684Z,2.91
2023-01-26T21:49:09.675Z,2.91
2023-01-26T21:51:54.856Z,2.93
2023-01-26T21:54:21.487Z,2.97
2023-01-26T21:56:48.031Z,2.90
2023-01-26T21:59:16.090Z,2.95
2023-01-26T22:01:45.241Z,2.95
2023-01-26T22:04:14.651Z,2.95
2023-01-26T22:06:41.129Z,2.94
2023-01-26T22:09:09.448Z,2.95
2023-01-26T22:11:36.169Z,2.98
2023-01-26T22:14:02.575Z,3.00
2023-01-26T22:16:29.135Z,3.04
2023-01-26T22:18:55.858Z,3.07
2023-01-26T22:21:22.490Z,3.01
2023-01-26T22:23:49.048Z,2.94
2023-01-26T22:26:19.490Z,3.03
2023-01-26T22:28:57.773Z,2.98
2023-01-26T22:31:27.645Z,2.94
2023-01-26T22:33:55.696Z,2.90
2023-01-26T22:36:22.986Z,2.90
2023-01-26T22:38:49.759Z,2.89
2023-01-26T22:41:21.761Z,2.86
2023-01-26T22:43:49.415Z,2.75
2023-01-26T22:46:17.946Z,2.83
2023-01-26T22:48:44.630Z,2.84
2023-01-26T22:51:18.078Z,2.92
2023-01-26T22:53:44.766Z,2.95
2023-01-26T22:56:11.556Z,3.00
2023-01-26T22:58:47.754Z,2.93
2023-01-26T23:01:19.126Z,2.93
2023-01-26T23:03:46.397Z,2.90
2023-01-26T23:06:14.860Z,2.94
2023-01-26T23:08:42.367Z,2.89
2023-01-26T23:11:13.118Z,2.85
2023-01-26T23:13:42.294Z,2.89
2023-01-26T23:16:09.015Z,2.85
2023-01-26T23:18:35.494Z,2.90
2023-01-26T23:21:01.987Z,2.92
2023-01-26T23:23:29.770Z,2.90
2023-01-26T23:25:59.100Z,2.84
2023-01-26T23:28:31.586Z,2.75
2023-01-26T23:30:59.460Z,2.81
2023-01-26T23:33:28.608Z,2.90
2023-01-26T23:35:55.659Z,2.87
2023-01-26T23:38:24.159Z,2.84
2023-01-26T23:40:51.503Z,2.87
2023-01-26T23:43:19.219Z,2.81
2023-01-26T23:45:46.996Z,2.78
2023-01-26T23:48:13.658Z,2.80
2023-01-26T23:50:40.464Z,2.83
2023-01-26T23:53:07.465Z,2.74
2023-01-26T23:55:34.559Z,2.84
2023-01-26T23:58:00.982Z,2.81
